Time;durP1;ratioP1;P1;durP2;ratioP2;P2;SDS_P1;SDS_P2;PMS_P1;PMS_P2;Temp;Humidity;BMP_temperature;BMP_pressure;BME280_temperature;BME280_humidity;BME280_pressure;Samples;Min_cycle;Max_cycle;Signal;HPM_P1;HPM_P2
2021/12/03 00:00:46;;;;;;;;;;;;;;;7.80;59.61;98215.16;4450972;32;19982;-94
2021/12/03 00:03:12;;;;;;;;;;;;;;;7.78;59.61;98226.50;4451692;32;19978;-92
2021/12/03 00:05:37;;;;;;;;;;;;;;;7.76;59.62;98218.78;4451902;32;20028;-93
2021/12/03 00:08:02;;;;;;;;;;;;;;;7.74;59.61;98215.44;4450824;32;20685;-93
2021/12/03 00:10:28;;;;;;;;;;;;;;;7.46;59.59;98217.56;4450857;32;20626;-92
2021/12/03 00:12:53;;;;;;;;;;;;;;;7.40;59.59;98226.44;4450968;32;20005;-94
2021/12/03 00:15:19;;;;;;;;;;;;;;;7.47;59.59;98216.66;4450549;32;19989;-90
2021/12/03 00:17:44;;;;;;;;;;;;;;;7.56;59.60;98222.25;4451281;32;20032;-92
2021/12/03 00:20:10;;;;;;;;;;;;;;;7.55;59.60;98214.56;4452017;32;20042;-91
2021/12/03 00:22:36;;;;;;;;;;;;;;;7.52;59.59;98218.13;4451048;32;19982;-92
2021/12/03 00:25:01;;;;;;;;;;;;;;;7.55;59.60;98236.12;4451070;32;20005;-91
2021/12/03 00:27:26;;;;;;;;;;;;;;;7.53;59.59;98230.16;4451100;32;20040;-92
2021/12/03 00:29:51;;;;;;;;;;;;;;;7.60;59.60;98239.38;4451153;32;20095;-93
2021/12/03 00:32:17;;;;;;;;;;;;;;;7.70;59.60;98243.22;4450930;32;20053;-94
2021/12/03 00:34:42;;;;;;;;;;;;;;;7.74;59.61;98245.66;4450675;32;19974;-93
2021/12/03 00:37:07;;;;;;;;;;;;;;;7.73;59.60;98254.34;4452753;32;20021;-93
2021/12/03 00:39:32;;;;;;;;;;;;;;;7.85;59.62;98259.00;4451621;32;20240;-93
2021/12/03 00:42:00;;;;;;;;;;;;;;;7.90;59.61;98244.09;4451394;32;20023;-93
2021/12/03 00:44:26;;;;;;;;;;;;;;;7.93;59.62;98244.78;4450956;32;19977;-94
2021/12/03 00:46:52;;;;;;;;;;;;;;;8.10;59.63;98263.91;4451016;32;20132;-93
2021/12/03 00:49:17;;;;;;;;;;;;;;;8.00;59.62;98264.31;4450747;32;20314;-94
2021/12/03 00:51:42;;;;;;;;;;;;;;;7.92;59.62;98266.41;4438299;32;20313;-94
2021/12/03 00:54:07;;;;;;;;;;;;;;;7.93;59.62;98273.28;4452142;32;19978;-94
2021/12/03 00:56:33;;;;;;;;;;;;;;;8.00;59.62;98272.09;4451277;32;20065;-93
2021/12/03 00:58:58;;;;;;;;;;;;;;;7.96;59.62;98267.12;4450632;32;20012;-94
2021/12/03 01:01:23;;;;;;;;;;;;;;;7.94;59.62;98262.00;4450863;32;20000;-93
2021/12/03 01:03:49;;;;;;;;;;;;;;;8.01;59.63;98272.94;4451194;32;20001;-94
2021/12/03 01:06:14;;;;;;;;;;;;;;;7.80;59.61;98289.44;4451488;32;20006;-94
2021/12/03 01:08:39;;;;;;;;;;;;;;;7.79;59.61;98286.00;4451455;32;20004;-93
2021/12/03 01:11:05;;;;;;;;;;;;;;;7.80;59.61;98286.84;4452157;32;19978;-93
2021/12/03 01:13:30;;;;;;;;;;;;;;;7.89;59.61;98281.25;4450566;32;19990;-93
2021/12/03 01:15:55;;;;;;;;;;;;;;;7.94;59.62;98281.91;4450377;32;20242;-93
2021/12/03 01:18:21;;;;;;;;;;;;;;;7.94;59.62;98284.47;4449632;32;20004;-94
2021/12/03 01:20:46;;;;;;;;;;;;;;;8.03;59.62;98281.47;4450857;32;19993;-94
2021/12/03 01:23:12;;;;;;;;;;;;;;;7.98;59.62;98291.22;4450963;32;20330;-92
2021/12/03 01:25:40;;;;;;;;;;;;;;;8.05;59.62;98284.03;4451894;32;20039;-93
2021/12/03 01:28:05;;;;;;;;;;;;;;;8.08;59.63;98289.91;4450926;32;20044;-94
2021/12/03 01:30:30;;;;;;;;;;;;;;;8.00;59.63;98298.00;4438688;32;19989;-94
2021/12/03 01:32:56;;;;;;;;;;;;;;;8.11;59.63;98292.34;4450463;32;20049;-94
2021/12/03 01:36:01;;;;;;;;;;;;;;;;;;;;;
2021/12/03 01:38:33;;;;;;;;;;;;;;;8.15;59.64;98282.69;4413509;32;35868;-93
2021/12/03 01:41:20;;;;;;;;;;;;;;;8.20;59.63;98288.50;4451226;32;20000;-94
2021/12/03 01:44:08;;;;;;;;;;;;;;;7.95;59.62;98299.97;4452634;32;19958;-94
2021/12/03 01:46:46;;;;;;;;;;;;;;;;;;;;;
2021/12/03 01:49:15;;;;;;;;;;;;;;;7.68;59.60;98306.34;4435689;32;36546;-94
2021/12/03 01:51:57;;;;;;;;;;;;;;;;;;;;;
2021/12/03 01:54:31;;;;;;;;;;;;;;;7.35;59.59;98317.25;4439963;32;35979;-92
2021/12/03 01:57:04;;;;;;;;;;;;;;;7.30;59.58;98318.31;4453547;32;20004;-93
2021/12/03 01:59:30;;;;;;;;;;;;;;;7.27;59.58;98305.53;4453151;32;19978;-94
2021/12/03 02:01:55;;;;;;;;;;;;;;;7.25;59.59;98300.41;4450932;32;19997;-93
2021/12/03 02:04:20;;;;;;;;;;;;;;;7.31;59.58;98313.09;4450443;32;20022;-92
2021/12/03 02:06:45;;;;;;;;;;;;;;;7.08;59.56;98320.94;4450478;32;20029;-94
2021/12/03 02:09:11;;;;;;;;;;;;;;;7.16;59.57;98329.25;4451042;32;19982;-94
2021/12/03 02:11:36;;;;;;;;;;;;;;;7.11;59.58;98333.78;4450583;32;19994;-95
2021/12/03 02:14:06;;;;;;;;;;;;;;;7.13;59.58;98331.13;4450687;32;20012;-93
2021/12/03 02:16:31;;;;;;;;;;;;;;;6.89;59.56;98323.47;4450521;32;20002;-94
2021/12/03 02:18:56;;;;;;;;;;;;;;;6.90;59.56;98322.56;4450166;32;20049;-93
2021/12/03 02:21:22;;;;;;;;;;;;;;;6.88;59.56;98337.31;4450718;32;20019;-92
2021/12/03 02:23:47;;;;;;;;;;;;;;;6.93;59.56;98339.69;4449869;32;20017;-91
2021/12/03 02:26:12;;;;;;;;;;;;;;;6.69;59.54;98341.50;4449554;32;20301;-92
2021/12/03 02:28:39;;;;;;;;;;;;;;;6.72;59.56;98337.06;4449924;32;20017;-92
2021/12/03 02:31:04;;;;;;;;;;;;;;;6.71;59.55;98347.44;4451562;32;20001;-91
2021/12/03 02:33:31;;;;;;;;;;;;;;;6.87;59.55;98347.72;4453785;32;20017;-91
2021/12/03 02:35:56;;;;;;;;;;;;;;;6.94;59.57;98352.56;4451442;32;20341;-91
2021/12/03 02:38:21;;;;;;;;;;;;;;;6.83;59.56;98372.81;4451657;32;20009;-91
2021/12/03 02:40:47;;;;;;;;;;;;;;;6.65;59.54;98368.38;4451942;32;20359;-92
2021/12/03 02:43:12;;;;;;;;;;;;;;;6.60;59.54;98372.84;4451861;32;20001;-91
2021/12/03 02:45:37;;;;;;;;;;;;;;;6.63;59.54;98377.94;4451882;32;20017;-92
2021/12/03 02:48:03;;;;;;;;;;;;;;;6.68;59.55;98382.03;4454658;32;20001;-91
2021/12/03 02:50:28;;;;;;;;;;;;;;;6.68;59.55;98383.78;4452378;32;19978;-92
2021/12/03 02:52:54;;;;;;;;;;;;;;;6.65;59.54;98397.66;4451733;32;20011;-92
2021/12/03 02:55:19;;;;;;;;;;;;;;;6.59;59.55;98404.78;4439119;32;20725;-92
2021/12/03 02:57:45;;;;;;;;;;;;;;;6.59;59.55;98403.03;4451940;32;20028;-92
2021/12/03 03:00:11;;;;;;;;;;;;;;;6.60;59.55;98407.31;4451983;32;20008;-92
2021/12/03 03:02:36;;;;;;;;;;;;;;;6.74;59.56;98409.41;4451780;32;19981;-92
2021/12/03 03:05:05;;;;;;;;;;;;;;;6.54;59.54;98414.47;4453213;32;20581;-92
2021/12/03 03:07:31;;;;;;;;;;;;;;;6.63;59.54;98420.16;4451595;32;20008;-91
2021/12/03 03:09:56;;;;;;;;;;;;;;;6.66;59.55;98432.97;4451448;32;19997;-92
2021/12/03 03:12:21;;;;;;;;;;;;;;;6.64;59.54;98433.91;4451713;32;19989;-91
2021/12/03 03:14:56;;;;;;;;;;;;;;;6.60;59.55;98435.75;4451807;32;20020;-91
2021/12/03 03:17:31;;;;;;;;;;;;;;;6.60;59.55;98442.66;4451446;32;20004;-92
2021/12/03 03:19:57;;;;;;;;;;;;;;;6.62;59.54;98453.78;4451479;32;20008;-92
2021/12/03 03:22:22;;;;;;;;;;;;;;;6.76;59.55;98446.37;4453300;32;19977;-92
2021/12/03 03:24:48;;;;;;;;;;;;;;;6.78;59.55;98436.81;4451556;32;20155;-93
2021/12/03 03:27:13;;;;;;;;;;;;;;;6.76;59.55;98446.37;4438778;32;20025;-92
2021/12/03 03:29:38;;;;;;;;;;;;;;;6.82;59.56;98447.88;4451416;32;20009;-92
2021/12/03 03:32:04;;;;;;;;;;;;;;;6.83;59.55;98457.31;4451633;32;20327;-92
2021/12/03 03:34:29;;;;;;;;;;;;;;;6.77;59.55;98467.00;4451568;32;19989;-93
2021/12/03 03:36:55;;;;;;;;;;;;;;;6.82;59.56;98466.84;4453916;32;20478;-92
2021/12/03 03:39:20;;;;;;;;;;;;;;;6.82;59.56;98477.19;4452924;32;19990;-91
2021/12/03 03:41:48;;;;;;;;;;;;;;;6.67;59.55;98477.75;4450726;32;19974;-92
2021/12/03 03:44:15;;;;;;;;;;;;;;;6.94;59.56;98486.25;4451626;32;20002;-92
2021/12/03 03:46:41;;;;;;;;;;;;;;;6.88;59.56;98487.31;4451657;32;20013;-91
2021/12/03 03:49:06;;;;;;;;;;;;;;;6.83;59.55;98484.03;4451120;32;19981;-92
2021/12/03 03:51:32;;;;;;;;;;;;;;;6.69;59.55;98496.66;4451594;32;19970;-92
2021/12/03 03:54:00;;;;;;;;;;;;;;;6.57;59.53;98502.25;4453642;32;20009;-94
2021/12/03 03:56:26;;;;;;;;;;;;;;;6.40;59.53;98497.69;4439444;32;20699;-92
2021/12/03 03:58:51;;;;;;;;;;;;;;;6.42;59.54;98499.31;4451598;32;20024;-94
2021/12/03 04:01:16;;;;;;;;;;;;;;;6.39;59.53;98506.34;4451903;32;19973;-92
2021/12/03 04:03:46;;;;;;;;;;;;;;;6.27;59.52;98502.44;4451138;32;20013;-93
2021/12/03 04:06:11;;;;;;;;;;;;;;;6.30;59.53;98501.47;4451531;32;20018;-92
2021/12/03 04:08:36;;;;;;;;;;;;;;;6.17;59.52;98508.81;4451224;32;20008;-92
2021/12/03 04:11:03;;;;;;;;;;;;;;;6.08;59.52;98503.94;4454076;32;19994;-92
2021/12/03 04:13:30;;;;;;;;;;;;;;;6.16;59.52;98512.31;4452116;32;19994;-93
2021/12/03 04:15:56;;;;;;;;;;;;;;;6.21;59.53;98520.75;4451324;32;20012;-93
2021/12/03 04:18:28;;;;;;;;;;;;;;;6.27;59.52;98524.84;4451855;32;19985;-93
2021/12/03 04:20:54;;;;;;;;;;;;;;;6.26;59.52;98528.31;4451471;32;19970;-94
2021/12/03 04:23:22;;;;;;;;;;;;;;;6.13;59.52;98539.06;4438950;32;20288;-91
2021/12/03 04:25:48;;;;;;;;;;;;;;;6.05;59.51;98553.13;4453261;32;20009;-93
2021/12/03 04:28:13;;;;;;;;;;;;;;;6.13;59.51;98551.13;4444683;32;20011;-94
2021/12/03 04:30:41;;;;;;;;;;;;;;;6.28;59.52;98557.53;4457813;32;19954;-92
2021/12/03 04:33:13;;;;;;;;;;;;;;;6.12;59.51;98559.78;4456511;32;19997;-93
2021/12/03 04:35:41;;;;;;;;;;;;;;;6.09;59.52;98563.31;4451450;32;19966;-95
2021/12/03 04:38:14;;;;;;;;;;;;;;;6.26;59.52;98567.09;4451492;32;20832;-94
2021/12/03 04:40:39;;;;;;;;;;;;;;;5.96;59.51;98587.88;4451635;32;19957;-94
2021/12/03 04:43:05;;;;;;;;;;;;;;;5.86;59.51;98597.59;4440458;32;19994;-94
2021/12/03 04:45:30;;;;;;;;;;;;;;;5.96;59.51;98587.88;4427017;32;20243;-94
2021/12/03 04:47:56;;;;;;;;;;;;;;;5.92;59.51;98591.44;4451280;32;19996;-94
2021/12/03 04:50:21;;;;;;;;;;;;;;;5.98;59.50;98590.41;4451163;32;20489;-94
2021/12/03 04:52:47;;;;;;;;;;;;;;;5.89;59.50;98613.87;4451201;32;20111;-93
2021/12/03 04:55:14;;;;;;;;;;;;;;;5.95;59.51;98612.00;4451016;32;19990;-94
2021/12/03 04:57:40;;;;;;;;;;;;;;;5.96;59.51;98618.88;4451166;32;19974;-93
2021/12/03 05:00:09;;;;;;;;;;;;;;;5.74;59.49;98636.72;4452302;32;20258;-94
2021/12/03 05:02:34;;;;;;;;;;;;;;;5.79;59.50;98647.75;4450598;32;20010;-95
2021/12/03 05:05:03;;;;;;;;;;;;;;;5.81;59.50;98643.38;4450952;32;19986;-94
2021/12/03 05:07:31;;;;;;;;;;;;;;;5.69;59.50;98648.94;4452347;32;19973;-93
2021/12/03 05:09:57;;;;;;;;;;;;;;;5.57;59.49;98649.28;4442518;32;19954;-92
2021/12/03 05:12:22;;;;;;;;;;;;;;;5.48;59.48;98667.63;4452502;32;20053;-92
2021/12/03 05:14:47;;;;;;;;;;;;;;;5.45;59.48;98652.22;4453641;32;20025;-92
2021/12/03 05:17:12;;;;;;;;;;;;;;;5.82;59.50;98652.81;4452793;32;19977;-92
2021/12/03 05:19:38;;;;;;;;;;;;;;;5.77;59.50;98671.94;4451755;32;20566;-92
2021/12/03 05:22:03;;;;;;;;;;;;;;;5.87;59.50;98675.91;4450362;32;20009;-93
2021/12/03 05:24:28;;;;;;;;;;;;;;;5.89;59.50;98689.63;4450908;32;20108;-95
2021/12/03 05:26:54;;;;;;;;;;;;;;;5.79;59.50;98691.66;4451221;32;19981;-93
2021/12/03 05:29:19;;;;;;;;;;;;;;;5.64;59.49;98691.25;4450800;32;20000;-94
2021/12/03 05:31:44;;;;;;;;;;;;;;;5.75;59.49;98699.53;4453616;32;20003;-95
2021/12/03 05:34:13;;;;;;;;;;;;;;;5.76;59.50;98709.81;4450725;32;19985;-95
2021/12/03 05:36:38;;;;;;;;;;;;;;;5.67;59.49;98709.22;4450562;32;19982;-94
2021/12/03 05:39:03;;;;;;;;;;;;;;;5.59;59.49;98717.19;4450421;32;20123;-93
2021/12/03 05:41:29;;;;;;;;;;;;;;;5.56;59.49;98725.03;4451341;32;20008;-95
2021/12/03 05:43:54;;;;;;;;;;;;;;;5.65;59.50;98732.50;4451189;32;20004;-91
2021/12/03 05:46:19;;;;;;;;;;;;;;;5.44;59.48;98740.84;4450000;32;19986;-93
2021/12/03 05:48:44;;;;;;;;;;;;;;;5.58;59.49;98763.69;4454240;32;19985;-94
2021/12/03 05:51:10;;;;;;;;;;;;;;;5.50;59.48;98762.19;4450468;32;19994;-94
2021/12/03 05:53:35;;;;;;;;;;;;;;;5.41;59.48;98777.06;4449715;32;19986;-94
2021/12/03 05:56:01;;;;;;;;;;;;;;;5.56;59.49;98776.66;4450096;32;20004;-94
2021/12/03 05:58:26;;;;;;;;;;;;;;;5.56;59.49;98781.81;4450083;32;20344;-94
2021/12/03 06:00:51;;;;;;;;;;;;;;;5.66;59.49;98787.56;4450135;32;20000;-94
2021/12/03 06:03:16;;;;;;;;;;;;;;;5.47;59.48;98792.41;4450279;32;20273;-94
2021/12/03 06:05:42;;;;;;;;;;;;;;;5.51;59.48;98801.75;4452266;32;19990;-93
2021/12/03 06:08:07;;;;;;;;;;;;;;;5.43;59.48;98803.66;4452012;32;20315;-91
2021/12/03 06:10:32;;;;;;;;;;;;;;;5.46;59.48;98808.78;4452419;32;20028;-92
2021/12/03 06:12:58;;;;;;;;;;;;;;;5.66;59.49;98813.38;4452156;32;20017;-92
2021/12/03 06:15:23;;;;;;;;;;;;;;;5.72;59.49;98819.25;4451647;32;19996;-92
2021/12/03 06:17:48;;;;;;;;;;;;;;;5.60;59.48;98822.13;4452058;32;20008;-92
2021/12/03 06:20:14;;;;;;;;;;;;;;;5.46;59.47;98821.69;4452792;32;19994;-91
2021/12/03 06:22:41;;;;;;;;;;;;;;;5.53;59.49;98821.47;4453598;32;20056;-91
2021/12/03 06:25:07;;;;;;;;;;;;;;;5.58;59.48;98829.06;4451608;32;20001;-92
2021/12/03 06:27:32;;;;;;;;;;;;;;;5.50;59.48;98837.03;4438907;32;19999;-92
2021/12/03 06:29:58;;;;;;;;;;;;;;;5.33;59.47;98836.63;4451907;32;20029;-92
2021/12/03 06:32:23;;;;;;;;;;;;;;;5.51;59.48;98853.38;4452107;32;20018;-91
2021/12/03 06:34:48;;;;;;;;;;;;;;;5.47;59.48;98862.09;4452097;32;20037;-92
2021/12/03 06:37:14;;;;;;;;;;;;;;;5.31;59.46;98871.09;4455618;32;20042;-91
2021/12/03 06:39:39;;;;;;;;;;;;;;;5.17;59.46;98880.00;4452207;32;20000;-91
2021/12/03 06:42:04;;;;;;;;;;;;;;;5.21;59.46;98891.13;4452047;32;20027;-90
2021/12/03 06:44:30;;;;;;;;;;;;;;;5.38;59.47;98906.16;4452042;32;19991;-91
2021/12/03 06:46:55;;;;;;;;;;;;;;;5.24;59.47;98907.38;4452186;32;20042;-91
2021/12/03 06:49:21;;;;;;;;;;;;;;;5.19;59.47;98914.34;4451844;32;20286;-91
2021/12/03 06:51:47;;;;;;;;;;;;;;;5.17;59.47;98916.13;4438934;32;19994;-90
2021/12/03 06:54:13;;;;;;;;;;;;;;;5.10;59.46;98916.31;4454450;32;20023;-90
2021/12/03 06:56:48;;;;;;;;;;;;;;;5.15;59.46;98930.78;4451776;32;19990;-91
2021/12/03 06:59:14;;;;;;;;;;;;;;;5.03;59.45;98927.66;4451941;32;20006;-91
2021/12/03 07:01:39;;;;;;;;;;;;;;;5.18;59.47;98935.03;4453068;32;20019;-90
2021/12/03 07:04:04;;;;;;;;;;;;;;;5.23;59.46;98946.09;4441576;32;20117;-90
2021/12/03 07:06:29;;;;;;;;;;;;;;;5.42;59.48;98952.50;4453251;32;20341;-91
2021/12/03 07:08:55;;;;;;;;;;;;;;;5.50;59.48;98952.34;4451846;32;20017;-91
2021/12/03 07:11:20;;;;;;;;;;;;;;;5.46;59.49;98961.91;4450615;32;20002;-90
2021/12/03 07:13:45;;;;;;;;;;;;;;;5.20;59.47;98967.66;4450202;32;20334;-91
2021/12/03 07:16:10;;;;;;;;;;;;;;;5.28;59.47;98979.53;4449501;32;20038;-91
2021/12/03 07:18:37;;;;;;;;;;;;;;;5.31;59.47;98976.88;4449860;32;20013;-91
2021/12/03 07:21:03;;;;;;;;;;;;;;;5.38;59.47;98975.84;4450070;32;19965;-91
2021/12/03 07:23:28;;;;;;;;;;;;;;;5.28;59.47;98979.53;4450151;32;20059;-90
2021/12/03 07:25:53;;;;;;;;;;;;;;;5.26;59.47;98986.47;4452884;32;19974;-91
2021/12/03 07:28:18;;;;;;;;;;;;;;;5.22;59.46;98991.69;4450144;32;20012;-91
2021/12/03 07:30:44;;;;;;;;;;;;;;;5.35;59.47;99000.00;4450886;32;19994;-90
2021/12/03 07:33:13;;;;;;;;;;;;;;;5.34;59.47;99015.50;4450683;32;20022;-90
2021/12/03 07:35:38;;;;;;;;;;;;;;;5.22;59.46;99026.97;4437202;32;19969;-91
2021/12/03 07:38:04;;;;;;;;;;;;;;;5.22;59.46;99038.13;4449968;32;20025;-91
2021/12/03 07:40:29;;;;;;;;;;;;;;;5.22;59.46;99040.72;4450213;32;20306;-90
2021/12/03 07:42:54;;;;;;;;;;;;;;;5.08;59.46;99044.47;4452116;32;20096;-90
2021/12/03 07:45:20;;;;;;;;;;;;;;;4.99;59.45;99055.84;4449910;32;19997;-90
2021/12/03 07:47:46;;;;;;;;;;;;;;;5.31;59.48;99057.72;4449742;32;20002;-91
2021/12/03 07:50:11;;;;;;;;;;;;;;;5.32;59.48;99063.72;4449676;32;20000;-90
2021/12/03 07:52:36;;;;;;;;;;;;;;;5.25;59.47;99068.19;4449554;32;20045;-91
2021/12/03 07:55:02;;;;;;;;;;;;;;;5.10;59.46;99066.75;4449627;32;19989;-90
2021/12/03 07:57:27;;;;;;;;;;;;;;;5.00;59.45;99078.16;4451252;32;19993;-91
2021/12/03 07:59:53;;;;;;;;;;;;;;;5.24;59.47;99082.81;4436933;32;20005;-92
2021/12/03 08:02:18;;;;;;;;;;;;;;;5.16;59.47;99095.00;4449664;32;20057;-91
2021/12/03 08:04:43;;;;;;;;;;;;;;;5.21;59.46;99100.94;4449607;32;19986;-92
2021/12/03 08:07:09;;;;;;;;;;;;;;;5.16;59.47;99100.16;4449583;32;20009;-91
2021/12/03 08:09:34;;;;;;;;;;;;;;;5.18;59.47;99100.13;4449475;32;20014;-92
2021/12/03 08:11:59;;;;;;;;;;;;;;;5.37;59.47;99119.50;4450429;32;20005;-90
2021/12/03 08:14:25;;;;;;;;;;;;;;;5.39;59.48;99134.97;4452025;32;20340;-90
2021/12/03 08:16:50;;;;;;;;;;;;;;;5.40;59.48;99132.34;4449442;32;20049;-90
2021/12/03 08:19:15;;;;;;;;;;;;;;;5.34;59.47;99137.66;4449578;32;20037;-90
2021/12/03 08:21:40;;;;;;;;;;;;;;;5.33;59.47;99140.25;4449540;32;20056;-90
2021/12/03 08:24:06;;;;;;;;;;;;;;;5.41;59.48;99149.53;4449486;32;19978;-90
2021/12/03 08:26:32;;;;;;;;;;;;;;;5.44;59.47;99158.94;4449523;32;20009;-91
2021/12/03 08:28:57;;;;;;;;;;;;;;;5.64;59.49;99151.62;4439320;32;19994;-91
2021/12/03 08:31:23;;;;;;;;;;;;;;;5.71;59.49;99153.22;4449589;32;20232;-89
2021/12/03 08:33:48;;;;;;;;;;;;;;;5.46;59.47;99154.63;4449355;32;20027;-91
2021/12/03 08:36:13;;;;;;;;;;;;;;;5.28;59.46;99167.91;4449500;32;20036;-91
2021/12/03 08:38:39;;;;;;;;;;;;;;;5.48;59.48;99165.75;4449633;32;19994;-91
2021/12/03 08:41:04;;;;;;;;;;;;;;;5.48;59.48;99168.34;4450586;32;20591;-92
2021/12/03 08:43:30;;;;;;;;;;;;;;;5.01;59.45;99187.34;4450424;32;20355;-91
2021/12/03 08:45:55;;;;;;;;;;;;;;;5.19;59.46;99187.81;4451306;32;20025;-91
2021/12/03 08:48:22;;;;;;;;;;;;;;;5.44;59.48;99193.37;4449675;32;20008;-92
2021/12/03 08:51:47;;;;;;;;;;;;;;;5.62;59.49;99191.28;4450099;32;20060;-91
2021/12/03 08:56:17;;;;;;;;;;;;;;;5.58;59.48;99203.41;4434855;32;20567;-91
2021/12/03 08:58:43;;;;;;;;;;;;;;;5.35;59.47;99213.34;4449078;32;20009;-91
2021/12/03 09:01:10;;;;;;;;;;;;;;;5.63;59.49;99211.91;4425670;32;20101;-91
2021/12/03 09:03:35;;;;;;;;;;;;;;;5.64;59.49;99220.50;4449857;32;19984;-91
2021/12/03 09:06:00;;;;;;;;;;;;;;;5.40;59.48;99232.16;4449310;32;20025;-91
2021/12/03 09:08:25;;;;;;;;;;;;;;;5.26;59.47;99240.19;4449287;32;20338;-91
2021/12/03 09:10:51;;;;;;;;;;;;;;;5.29;59.47;99245.28;4448989;32;20008;-92
2021/12/03 09:13:16;;;;;;;;;;;;;;;5.48;59.48;99245.78;4449114;32;19978;-91
2021/12/03 09:15:48;;;;;;;;;;;;;;;5.70;59.50;99246.22;4449228;32;20437;-92
2021/12/03 09:18:30;;;;;;;;;;;;;;;5.81;59.50;99267.47;4450595;32;19961;-91
2021/12/03 09:21:08;;;;;;;;;;;;;;;5.84;59.50;99267.41;4449109;32;19985;-92
2021/12/03 09:26:15;;;;;;;;;;;;;;;5.74;59.49;99269.34;4435101;32;19994;-92
2021/12/03 09:28:43;;;;;;;;;;;;;;;5.46;59.47;99275.94;4448953;32;20017;-92
2021/12/03 09:31:10;;;;;;;;;;;;;;;5.81;59.50;99276.09;4449178;32;20301;-92
2021/12/03 09:33:37;;;;;;;;;;;;;;;5.98;59.50;99259.44;4450670;32;19988;-91
2021/12/03 09:36:03;;;;;;;;;;;;;;;6.20;59.52;99258.09;4451089;32;20015;-92
2021/12/03 09:38:32;;;;;;;;;;;;;;;6.25;59.52;99255.38;4449181;32;20033;-91
2021/12/03 09:41:05;;;;;;;;;;;;;;;6.18;59.52;99270.19;4448143;32;20037;-92
2021/12/03 09:43:30;;;;;;;;;;;;;;;6.10;59.52;99252.25;4448769;32;20325;-92
2021/12/03 09:51:25;;;;;;;;;;;;;;;6.40;59.53;99250.72;4435527;32;20031;-92
2021/12/03 09:56:35;;;;;;;;;;;;;;;6.33;59.52;99264.66;4434012;32;20690;-93
2021/12/03 09:59:37;;;;;;;;;;;;;;;6.47;59.54;99266.94;4448700;32;20056;-91
2021/12/03 10:12:24;;;;;;;;;;;;;;;6.59;59.55;99284.75;4424143;32;20046;-92
2021/12/03 10:15:05;;;;;;;;;;;;;;;6.55;59.54;99290.03;4433811;32;20040;-92
2021/12/03 10:17:39;;;;;;;;;;;;;;;6.66;59.55;99288.91;4448116;32;20043;-92
2021/12/03 10:20:19;;;;;;;;;;;;;;;6.64;59.54;99284.66;4448359;32;20043;-92
2021/12/03 10:23:28;;;;;;;;;;;;;;;6.77;59.55;99291.22;4450410;32;19992;-92
2021/12/03 10:34:10;;;;;;;;;;;;;;;6.70;59.55;99293.13;4433990;32;19988;-92
2021/12/03 10:41:44;;;;;;;;;;;;;;;6.41;59.53;99309.31;4435299;32;19961;-91
2021/12/03 10:51:55;;;;;;;;;;;;;;;6.96;59.56;99300.25;4436066;32;20048;-92
2021/12/03 10:54:34;;;;;;;;;;;;;;;6.95;59.55;99303.72;4450547;32;19986;-92
2021/12/03 11:08:27;;;;;;;;;;;;;;;6.85;59.55;99314.31;4435868;32;20027;-92
2021/12/03 12:20:08;;;;;;;;;;;;;;;6.32;59.53;99399.97;4435067;32;19996;-93
2021/12/03 12:35:53;;;;;;;;;;;;;;;6.32;59.53;99409.44;4434994;32;19996;-91
2021/12/03 13:24:29;;;;;;;;;;;;;;;5.92;59.51;99428.31;4435001;32;20013;-91
2021/12/03 14:33:34;;;;;;;;;;;;;;;5.79;59.50;99509.44;4438177;32;19957;-90
2021/12/03 14:42:54;;;;;;;;;;;;;;;5.45;59.48;99525.47;4438752;32;20002;-91
2021/12/03 14:45:34;;;;;;;;;;;;;;;5.59;59.49;99532.12;4450330;32;19950;-91
2021/12/03 14:55:57;;;;;;;;;;;;;;;5.76;59.50;99541.34;4437289;32;19994;-92
2021/12/03 14:58:29;;;;;;;;;;;;;;;5.90;59.51;99542.84;4450133;32;20558;-91
2021/12/03 15:00:59;;;;;;;;;;;;;;;5.82;59.50;99543.81;4450006;32;20293;-92
2021/12/03 15:06:10;;;;;;;;;;;;;;;5.49;59.48;99549.50;4437306;32;19986;-92
2021/12/03 15:24:35;;;;;;;;;;;;;;;5.07;59.46;99575.00;4438382;32;19993;-90
2021/12/03 15:30:13;;;;;;;;;;;;;;;5.19;59.47;99580.00;4438541;32;19989;-88
2021/12/03 15:57:14;;;;;;;;;;;;;;;4.41;59.42;99610.13;4427281;32;19968;-90
2021/12/03 16:10:19;;;;;;;;;;;;;;;4.09;59.40;99638.75;4438403;32;19977;-91
2021/12/03 16:12:57;;;;;;;;;;;;;;;4.07;59.40;99643.06;4451363;32;19978;-90
2021/12/03 16:20:56;;;;;;;;;;;;;;;4.08;59.40;99649.91;4436170;32;19990;-90
2021/12/03 16:23:32;;;;;;;;;;;;;;;4.01;59.40;99649.94;4450925;32;20041;-89
2021/12/03 16:51:06;;;;;;;;;;;;;;;3.72;59.38;99664.72;4426688;32;19954;-90
2021/12/03 16:53:32;;;;;;;;;;;;;;;3.56;59.37;99668.25;4451051;32;20681;-89
2021/12/03 16:56:09;;;;;;;;;;;;;;;3.62;59.38;99673.37;4451347;32;19982;-90
2021/12/03 16:58:35;;;;;;;;;;;;;;;3.62;59.38;99681.09;4451076;32;20017;-88
2021/12/03 17:01:07;;;;;;;;;;;;;;;3.72;59.38;99677.59;4451125;32;19999;-90
2021/12/03 17:17:05;;;;;;;;;;;;;;;3.56;59.38;99679.41;4437946;32;19994;-89
2021/12/03 17:56:29;;;;;;;;;;;;;;;3.48;59.38;99706.03;4436943;32;20310;-87
2021/12/03 18:04:54;;;;;;;;;;;;;;;2.96;59.34;99707.03;4440015;32;20004;-86
2021/12/03 18:07:31;;;;;;;;;;;;;;;2.86;59.33;99714.78;4454745;32;19985;-86
2021/12/03 18:53:34;;;;;;;;;;;;;;;2.85;59.33;99723.34;4439033;32;20026;-86
2021/12/03 18:56:02;;;;;;;;;;;;;;;3.02;59.34;99719.03;4453733;32;20005;-88
2021/12/03 18:58:28;;;;;;;;;;;;;;;2.84;59.33;99713.91;4454078;32;20008;-87
2021/12/03 19:00:54;;;;;;;;;;;;;;;2.73;59.33;99727.63;4454426;32;19993;-87
2021/12/03 19:06:02;;;;;;;;;;;;;;;2.62;59.32;99724.22;4440982;32;20009;-89
2021/12/03 19:11:23;;;;;;;;;;;;;;;2.63;59.32;99722.53;4439612;32;20022;-86
2021/12/03 19:13:49;;;;;;;;;;;;;;;2.66;59.32;99720.78;4436827;32;20027;-87
2021/12/03 19:16:17;;;;;;;;;;;;;;;2.54;59.31;99723.34;4451189;32;20290;-87
2021/12/03 19:18:48;;;;;;;;;;;;;;;2.59;59.32;99713.06;4437840;32;20001;-87
2021/12/03 19:21:18;;;;;;;;;;;;;;;2.72;59.33;99713.06;4450495;32;20283;-87
2021/12/03 19:23:44;;;;;;;;;;;;;;;2.43;59.31;99713.09;4437341;32;19966;-88
2021/12/03 19:26:09;;;;;;;;;;;;;;;2.44;59.31;99719.09;4451078;32;20403;-88
2021/12/03 19:28:36;;;;;;;;;;;;;;;2.66;59.32;99718.22;4451259;32;20337;-87
2021/12/03 19:31:02;;;;;;;;;;;;;;;2.47;59.31;99725.06;4449606;32;20000;-87
2021/12/03 19:33:27;;;;;;;;;;;;;;;2.42;59.30;99716.53;4449405;32;19997;-87
2021/12/03 19:35:53;;;;;;;;;;;;;;;2.50;59.32;99719.09;4449491;32;20028;-87
2021/12/03 19:38:18;;;;;;;;;;;;;;;2.22;59.30;99725.91;4449420;32;20008;-87
2021/12/03 19:40:57;;;;;;;;;;;;;;;2.33;59.30;99726.78;4449382;32;19989;-87
2021/12/03 19:43:31;;;;;;;;;;;;;;;2.42;59.30;99731.94;4449321;32;19958;-87
2021/12/03 19:46:01;;;;;;;;;;;;;;;2.36;59.31;99728.47;4449452;32;20338;-86
2021/12/03 19:48:35;;;;;;;;;;;;;;;2.33;59.30;99729.34;4449271;32;20729;-88
2021/12/03 19:51:01;;;;;;;;;;;;;;;2.37;59.31;99732.78;4449251;32;20373;-87
2021/12/03 19:53:28;;;;;;;;;;;;;;;2.64;59.33;99722.50;4449311;32;19990;-87
2021/12/03 19:55:54;;;;;;;;;;;;;;;2.56;59.31;99728.50;4436109;32;20330;-86
2021/12/03 19:58:20;;;;;;;;;;;;;;;2.57;59.32;99728.50;4436021;32;20036;-87
2021/12/03 20:00:46;;;;;;;;;;;;;;;2.52;59.31;99727.66;4449127;32;19969;-87
2021/12/03 20:03:11;;;;;;;;;;;;;;;2.61;59.32;99734.50;4436516;32;19982;-87
2021/12/03 20:05:37;;;;;;;;;;;;;;;2.50;59.31;99733.63;4449398;32;20026;-87
2021/12/03 20:08:04;;;;;;;;;;;;;;;2.36;59.31;99742.19;4449494;32;20314;-88
2021/12/03 20:10:32;;;;;;;;;;;;;;;2.51;59.32;99736.22;4449473;32;20437;-86
2021/12/03 20:12:58;;;;;;;;;;;;;;;2.68;59.32;99739.63;4449176;32;19985;-86
2021/12/03 20:15:37;;;;;;;;;;;;;;;2.66;59.32;99736.22;4449213;32;20338;-86
2021/12/03 20:18:31;;;;;;;;;;;;;;;2.64;59.32;99747.34;4449057;32;20062;-86
2021/12/03 20:20:49;;;;;;;;;;;;;;;2.59;59.32;99747.34;4434320;32;20008;-86
2021/12/03 20:23:29;;;;;;;;;;;;;;;2.71;59.32;99746.50;4448838;32;19990;-86
2021/12/03 20:28:41;;;;;;;;;;;;;;;2.76;59.33;99730.19;4435221;32;20330;-86
2021/12/03 20:31:08;;;;;;;;;;;;;;;2.83;59.33;99728.47;4449185;32;20027;-86
2021/12/03 20:38:36;;;;;;;;;;;;;;;2.83;59.33;99728.47;4436081;32;20014;-86
2021/12/03 20:41:05;;;;;;;;;;;;;;;2.91;59.33;99737.06;4448844;32;20009;-86
2021/12/03 20:51:35;;;;;;;;;;;;;;;2.74;59.33;99743.91;4434598;32;19993;-87
2021/12/03 20:54:20;;;;;;;;;;;;;;;2.77;59.33;99747.34;4449099;32;20000;-87
2021/12/03 21:10:44;;;;;;;;;;;;;;;2.59;59.32;99757.59;4414914;32;20000;-87